Предлагаем Вашему вниманию английскую версию страницы: AUTOTAF.ME 14549 - aviation weather forecast Zenica

AUTOTAF 14549 - авиапрогноз Zenica

Сегодня рассвет 04:48 UTC, восход солнца 05:18 UTC,
местный полдень 10:32 UTC, заход солнца 15:46 UTC,
наступление темноты 16:15 UTC.

Краткий прогноз 14549 на 9 часов

AUTOTAF.ME 14549 260800Z 2609/2618 VRB02MPS 9999 SCT014    
  BECMG 2610/2612 SCT027  
  BECMG 2613/2615 NSC  
  FM261800 VRB02MPS 2000 BR BKN005

Детальный прогноз 14549 на 24 часа

AUTOTAF.ME 14549 260800Z 2609/2709 VRB02MPS 9999 SCT014 TX15/2612Z TN07/2621Z  
  BECMG 2610/2612 SCT027  
  BECMG 2613/2615 BKN300  
  FM261800 VRB02MPS 2000 BR BKN005  
  BECMG 2622/2700 3000  
  FM270300 VRB02MPS 1000 BR BKN003 
  FM270600 VRB02MPS 3000 BR BKN005 
  FM270900 VRB02MPS 9999 SKC

Подробный табличный прогноз

Время (UTC) miniAUTOTAF на 3 ч WX FZLVL
M AGL
ICE TURB Т
(°С)
Тd
(°С)
f(%) QNH
(гПа)
WIND/T
06 VRB02MPS 3000 BR BKN005 BR 2850 7 6 95 1013 ...
09 VRB02MPS 9999 SCT014 2850 12 9 77 1011 ...
12 19003MPS 9999 SCT027 3000 MOD FL50/FL60 15 8 63 1011 ...
15 19003MPS 9999 BKN300 3300 12 8 77 1010 ...
18 VRB02MPS 2000 BR BKN005 BR 3300 8 7 94 1011 ...
21 VRB02MPS 2000 BR BKN005 BR 3300 7 7 95 1011 ...
27.10.2020
00 VRB02MPS 3000 BR BKN005 BR 3300 7 6 94 1011 ...
03 VRB02MPS 1000 BR BKN003 BR 3000 7 6 95 1010 ...
06 VRB02MPS 3000 BR BKN005 BR 3000 7 6 95 1011 ...
09 VRB02MPS 9999 SKC 2850 14 8 68 1010 ...
12 VRB02MPS 9999 SKC 2700 MOD FL50/FL60 17 8 54 1010 ...
15 VRB02MPS 9999 SKC 2700 14 9 71 1009 ...
18 VRB02MPS 9999 BKN014 2700 9 7 86 1011 ...
21 VRB02MPS 5000 BR BKN014 BR 2700 8 7 88 1012 ...
28.10.2020
00 VRB02MPS 2000 BR BKN005 BR 2550 8 6 92 1013 ...
03 VRB02MPS 1000 BR BKN003 BR 2700 7 6 93 1013 ...


Широта 44.2°, долгота 17.9°, высота 348 м абс.
Средняя высота рельефа местности 806 м абс.
Прогнозы обновляются четыре раза в сутки: в 02, 08, 14, 20 ч всемирного времени.


Выбрать прогноз по другой модели Zenica
Онлайн-сводка гроз по Zenica (для РФ и ближнего зарубежья)
Карта фактических гроз в окрестностях Zenica
Динамические прогностические карты (ventusky.com)
Прогностическая карта высоты нижней границы облаков по Zenica (windy.com)
Выбрать другой город

Прогноз предназначен для личного научно-познавательного использования частными лицами
и не предназначен для принятия важных решений и выполнения реальных полётов воздушных судов

При копировании или ином использовании любых материалов данного сайта ссылка на © meteocenter.asia обязательна.

1/1.4